Carolina, PR (00988)

7:03 PM AST on March 05, 2015 (GMT -0400)
Manejo de Emergencias Carolina | Change Station
CLOSE
Current Station
Personal Weather Station
Location: Carolina, PR
Elevation: 40 ft
Nearby Weather Stations

Elev 40 ft 18.38 °N, 65.97 °W | Updated 14 minutes ago

Scattered Clouds
Scattered Clouds
78.3 °F
Feels Like 81 °F
N
9.0
Wind Variable Wind from ESE
Gusts 16.0 mph

Today
High -- | Low -- °F
--% Chance of Precip.
Yesterday
High -- | Low -- °F
Precip. -- in
6:40 AM 6:31 PM
Full, 100% visible
Pressure 30.09 in
Visibility 10.0 miles
Clouds Scattered Clouds 3700 ft
Scattered Clouds 6500 ft
Heat Index 81 °F
Dew Point 71 °F
Humidity 79%
Rainfall in
Snow Depth Not available.
UV 0 out of 12
Pollen Not available.
Air Quality Not available.
Flu Activity Not available.
METAR TJSJ 052256Z 09014KT 10SM SCT037 SCT065 26/21 A3009 RMK AO2 SLP189 SHRA DSNT SW T02560211

More Conditions Fewer Conditions

Pressure 30.09 in
Visibility 10.0 miles
Clouds Scattered Clouds 3700 ft
Scattered Clouds 6500 ft
Heat Index 81 °F
Dew Point 71 °F
Humidity 79%
Rainfall in
Snow Depth Not available.
UV 0 out of 12
Pollen Not available.
Air Quality Not available.
Flu Activity Not available.
METAR TJSJ 052256Z 09014KT 10SM SCT037 SCT065 26/21 A3009 RMK AO2 SLP189 SHRA DSNT SW T02560211

More Conditions Fewer Conditions

10-Day Weather Forecast

Almanac

Astronomy

Mar. 05, 2015 Rise Set
Actual Time
Civil Twilight
Nautical Twilight
Astronomical Twilight
Moon
Length of Visible Light
Length of Day
Tomorrow will be .
, % of the Moon is Illuminated

Today's Extremes

State Highs State Lows

Community

WunderPhotos

Upload Photos

1,803,036 photos uploaded!

WunderBlogs® & News

Nearby

Air Quality

  Air Quality AQ Index Pollutant
Not available.

Snow Depth

Station Depth Elevation

Earthquake Activity

City Distance Mag. Time & Date
Minimum magnitude displayed is 2.5.

Coastal Water Temperatures

Place Temperature

Nearby Weather Stations